Detalii statie AGROKAISER STANESTI [0000198D]

Toti senzorii

Date Temperatura solului [C]Precipitatii [mm]Voltaj baterie [mV]Leaf Wetness [Min]HC Air temperature [C]HC Relative humidity [%]Punctul de roua [C]
medieminmaxsumaultimatimpmedieminmaxmediemediemin
2017-10-20 09:00:00 0 7284 13.89 12.21 16 98.7 13.6 12.2
2017-10-20 10:00:00 0 7274 17.14 16.1 18.89 87.82 14.9 14.6
2017-10-20 11:00:00 0 7264 20.13 18.58 20.97 77.32 15.8 15.2
2017-10-20 12:00:00 0 7264 21.74 21.04 23 70.47 15.9 15.7
2017-10-20 13:00:00 0 7246 23.59 22.9 24.31 61.57 15.6 15
2017-10-20 14:00:00 0 7254 24.62 24.17 25.19 55.93 15 14.6
2017-10-20 15:00:00 0 7254 25.04 24.74 25.17 55.32 15.2 14.7
2017-10-20 16:00:00 0 6942 24.52 23.92 25.17 53 14.1 12.5
2017-10-20 17:00:00 0 6854 23.13 21.86 23.76 53.09 12.8 12.4
2017-10-20 18:00:00 0 6844 19.62 18.26 21.5 63.52 12.3 12.2
2017-10-20 19:00:00 0 6834 17.43 16.73 18.05 70.36 11.8 11.6
2017-10-20 20:00:00 0 6806 17.42 16.73 17.88 68.38 11.3 11.1
2017-10-20 21:00:00 0 6806 16.99 15.44 17.66 69.48 11.2 10.8
2017-10-20 22:00:00 0 6796 14.58 14.04 15.33 79.76 10.9 10.7
2017-10-20 23:00:00 0 6796 14.38 13.93 14.66 78.43 10.5 10.3
2017-10-21 00:00:00 0 6786 13.97 13.82 14.09 88.05 11.9 10.6
2017-10-21 01:00:00 0 6766 13.14 12.95 13.63 97.1 12.5 12.2
2017-10-21 02:00:00 0 6776 11.27 9.57 12.85 99.27 11 9.5
2017-10-21 03:00:00 0 6766 11.11 9.51 11.74 99.97 11 9.5
2017-10-21 04:00:00 0 6776 10.8 10.32 11.34 100 10.7 10.3
2017-10-21 05:00:00 0 6756 9.91 9.4 10.51 100 9.8 9.4
2017-10-21 06:00:00 0 6756 9.12 7.65 10.73 99.89 9 7.6
2017-10-21 07:00:00 0 6766 9.44 9.25 9.6 100 9.4 9.2
2017-10-21 08:00:00 0 6826 10.32 9.49 11.07 99.96 10.2 9.4
2017-10-21 09:00:00 0 7264 12.28 11.19 14.1 95.99 11.5 10.9
2017-10-21 10:00:00 0 7274 15.48 14.32 16.81 79.78 11.8 11.4
2017-10-21 11:00:00 0 7264 17.65 16.9 18.45 67.9 11.5 11.1
2017-10-21 12:00:00 0 7264 19.23 18.27 20.12 63.72 12 11.5
2017-10-21 13:00:00 0 7264 20.71 20.03 21.59 61.83 12.9 12.5
2017-10-21 14:00:00 0 7254 21.77 21.23 22.13 60.67 13.6 13.3
2017-10-21 15:00:00 0 7254 22.46 22.17 22.86 57.88 13.5 13.2
2017-10-21 16:00:00 0 6962 22.48 22 23 56.36 13.2 12.8
2017-10-21 17:00:00 0 6864 21.4 19.89 22.04 59.72 13.1 12.6
2017-10-21 18:00:00 0 6854 17.65 16.15 19.44 71.76 12.3 11.8
2017-10-21 19:00:00 0 6834 16.43 15.98 16.96 73.8 11.5 11.3
2017-10-21 20:00:00 0 6816 16.34 16.04 16.7 71.18 10.9 10.5
2017-10-21 21:00:00 0 6826 15.54 15.25 15.85 71.94 10.3 10.2
2017-10-21 22:00:00 0 6816 15.75 15.14 16.88 70.01 10.1 9.8
2017-10-21 23:00:00 0 6806 16.52 16.06 16.91 66.43 10.1 10
2017-10-22 00:00:00 0 6786 15.86 15.61 16.08 70.48 10.3 10.1
2017-10-22 01:00:00 0 6796 15.59 15.24 15.94 73.64 10.7 10.7
2017-10-22 02:00:00 0 6786 14.84 14.22 15.25 77.9 10.8 10.7
2017-10-22 03:00:00 0 6786 12.9 11.98 14.12 87.76 10.7 10.6
2017-10-22 04:00:00 0 6766 11.63 11.25 11.93 95.9 10.8 10.7
2017-10-22 05:00:00 0 6776 10.55 9.52 11.45 98.24 10.1 9.5
2017-10-22 06:00:00 0 6766 8.89 8.49 9.41 100 8.8 8.4
2017-10-22 07:00:00 0 6748 7.93 7.61 8.42 100 7.8 7.6